Domov
logo

Vyskúšajte rýchly a spoľahlivý webhosting

Aktuálne počasie

LZIB - letisko Bratislava

Hodnoty namerané: 23.10.2019, 09:30 SELČ
Aktuálny čas: 23.10.2019, 09:41 SELČ
Aktualizované: pred 11 min.
Teplota: 14°C
Rosný bod: 13°C
Vietor: 11 km/h 60° (VSV)
Dohľadnosť: viac ako 10 km
Stav počasia: bez zrážok
Oblačnosť: malá oblačnosť na 213 m
Základňa oblačnosti: 213 m
Vlhkosť vzduchu: 94 %
Tlak vzduchu: 1021 hPa
METAR: LZIB 230730Z 06006KT 9999 FEW007 14/13 Q1021 NOSIG

LZKZ - letisko Košice

Hodnoty namerané: 23.10.2019, 09:30 SELČ
Aktuálny čas: 23.10.2019, 09:41 SELČ
Aktualizované: pred 11 min.
Teplota: 13°C
Rosný bod: 12°C
Vietor: premenlivý 2 km/h
Dohľadnosť: 5000 m
Stav počasia: dymno
Oblačnosť: nezaznamenané žiadne výrazné mraky
Vlhkosť vzduchu: 94 %
Tlak vzduchu: 1023 hPa
METAR: LZKZ 230730Z VRB01KT 5000 BR NSC 13/12 Q1023 BECMG CAVOK

LZPP - letisko Piešťany

Hodnoty namerané: 23.10.2019, 09:30 SELČ
Aktuálny čas: 23.10.2019, 09:41 SELČ
Aktualizované: pred 11 min.
Teplota: 12°C
Rosný bod: 12°C
Vietor: 13 km/h 360° (S)
Dohľadnosť: 2000 m
Stav počasia: dymno
Oblačnosť: oblačno na 91 m
Základňa oblačnosti: 91 m
Vlhkosť vzduchu: 100 %
Tlak vzduchu: 1021 hPa
METAR: LZPP 230730Z 36007KT 2000 BR BKN003 12/12 Q1021

LZTT - letisko Poprad Tatry

Hodnoty namerané: 23.10.2019, 09:38 SELČ
Aktuálny čas: 23.10.2019, 09:41 SELČ
Aktualizované: pred 3 min.
Teplota: 8°C, pocitová teplota 7°C
Rosný bod: 7°C
Vietor: 6 km/h 50° (SV)
Dohľadnosť: 5000 m
Stav počasia: pásy hmla, dymno
Oblačnosť: polooblačno na 30 m
Základňa oblačnosti: 30 m
Vlhkosť vzduchu: 93 %
Tlak vzduchu: 1024 hPa
METAR: LZTT 230738Z 05003KT 5000 0800NE BCFG BR SCT001 08/07 Q1024

LZSL - letisko Sliač

Hodnoty namerané: 23.10.2019, 09:30 SELČ
Aktuálny čas: 23.10.2019, 09:41 SELČ
Aktualizované: pred 11 min.
Teplota: 11°C
Rosný bod: 10°C
Vietor: premenlivý 2 km/h
Dohľadnosť: 300 m
Stav počasia: hmla
Oblačnosť: vertikálna dohľadnosť na 61 m
Základňa oblačnosti: 61 m
Vlhkosť vzduchu: 94 %
Tlak vzduchu: 1024 hPa
METAR: LZSL 230730Z VRB01KT 0300 R36/0550N FG VV002 11/10 Q1024

LZZI - letisko Žilina

Hodnoty namerané: 23.10.2019, 09:30 SELČ
Aktuálny čas: 23.10.2019, 09:41 SELČ
Aktualizované: pred 11 min.
Teplota: 10°C, pocitová teplota 9°C
Rosný bod: 10°C
Vietor: 9 km/h 50° (SV)
Dohľadnosť: 500 m
Stav počasia: hmla
Oblačnosť: zamračené na 61 m
Základňa oblačnosti: 61 m
Vlhkosť vzduchu: 100 %
Tlak vzduchu: 1022 hPa
METAR: LZZI 230730Z 05005KT 0500 R06/0750N FG OVC002 10/10 Q1022

POZNÁMKY:

SEČ - stredoeurópsky čas (UTC+1hod.)

SELČ - stredoeurópsky letný čas (UTC+2hod.)

UTC - univerzálny svetový čas, GMT, ZULU

METAR - sú pravidelné kódované letecké meteorologické správy. Tie zostavujú a zverejňujú meteorologické stanice letísk v polhodinových/hodinových intervaloch. Na tejto stránke správy METAR zo slovenských letísk nájdete už v dekódovanej podobe.

hore